Time;durP1;ratioP1;P1;durP2;ratioP2;P2;SDS_P1;SDS_P2;PMS_P1;PMS_P2;Temp;Humidity;BMP_temperature;BMP_pressure;BME280_temperature;BME280_humidity;BME280_pressure;Samples;Min_cycle;Max_cycle;Signal;HPM_P1;HPM_P2
2022/01/06 00:01:02;;;;;;;;;;;-1.70;99.90;;;;;;4940129;28;20048;-83
2022/01/06 00:03:31;;;;;;;;;;;-1.70;99.90;;;;;;4962337;28;20289;-84
2022/01/06 00:06:05;;;;;;;;;;;-1.70;99.90;;;;;;4943779;28;19923;-84
2022/01/06 00:08:34;;;;;;;;;;;-1.70;99.90;;;;;;4945462;28;19929;-84
2022/01/06 00:11:02;;;;;;;;;;;-1.70;99.90;;;;;;4943808;28;19923;-84
2022/01/06 00:13:56;;;;;;;;;;;-1.70;99.90;;;;;;4943575;28;19926;-84
2022/01/06 00:16:34;;;;;;;;;;;-1.60;99.90;;;;;;4948966;28;19930;-84
2022/01/06 00:24:15;;;;;;;;;;;-1.50;99.90;;;;;;4947098;28;19922;-84
2022/01/06 00:26:42;;;;;;;;;;;-1.50;99.90;;;;;;4959164;28;19969;-83
2022/01/06 00:29:09;;;;;;;;;;;-1.40;99.90;;;;;;4957507;28;19925;-84
2022/01/06 00:31:36;;;;;;;;;;;-1.40;99.90;;;;;;4966794;28;20505;-84
2022/01/06 00:34:05;;;;;;;;;;;-1.50;99.90;;;;;;4967797;28;19944;-83
2022/01/06 00:36:33;;;;;;;;;;;-1.40;99.90;;;;;;4963596;28;19923;-84
2022/01/06 00:38:59;;;;;;;;;;;-1.40;99.90;;;;;;4967489;28;20604;-83
2022/01/06 00:41:26;;;;;;;;;;;-1.40;99.90;;;;;;4965971;28;19988;-84
2022/01/06 00:43:53;;;;;;;;;;;-1.40;99.90;;;;;;4966055;28;19933;-84
2022/01/06 00:46:20;;;;;;;;;;;-1.40;99.90;;;;;;4979483;28;19930;-83
2022/01/06 00:48:47;;;;;;;;;;;-1.40;99.90;;;;;;4963162;28;19926;-83
2022/01/06 00:51:14;;;;;;;;;;;-1.40;99.90;;;;;;4966677;28;19926;-84
2022/01/06 00:53:40;;;;;;;;;;;-1.40;99.90;;;;;;4968378;28;20032;-83
2022/01/06 00:56:07;;;;;;;;;;;-1.40;99.90;;;;;;4981467;28;19953;-84
2022/01/06 00:58:34;;;;;;;;;;;-1.40;99.90;;;;;;4979303;28;19984;-84
2022/01/06 01:01:01;;;;;;;;;;;-1.30;99.90;;;;;;4966548;28;19930;-84
2022/01/06 01:03:28;;;;;;;;;;;-1.30;99.90;;;;;;4979750;28;20025;-83
2022/01/06 01:05:55;;;;;;;;;;;-1.40;99.90;;;;;;4964990;28;19926;-83
2022/01/06 01:08:26;;;;;;;;;;;-1.40;99.90;;;;;;4979766;28;19926;-83
2022/01/06 01:10:54;;;;;;;;;;;-1.40;99.90;;;;;;4960974;28;19922;-84
2022/01/06 01:13:28;;;;;;;;;;;-1.40;99.90;;;;;;4978890;28;20024;-83
2022/01/06 01:15:58;;;;;;;;;;;-1.40;99.90;;;;;;4966511;28;19926;-83
2022/01/06 01:18:26;;;;;;;;;;;-1.40;99.90;;;;;;4965811;28;19930;-83
2022/01/06 01:20:53;;;;;;;;;;;-1.50;99.90;;;;;;4966711;28;20370;-84
2022/01/06 01:23:21;;;;;;;;;;;-1.50;99.90;;;;;;4966106;28;19986;-84
2022/01/06 01:25:48;;;;;;;;;;;-1.50;99.90;;;;;;4986130;28;20332;-84
2022/01/06 01:28:15;;;;;;;;;;;-1.40;99.90;;;;;;4967995;28;19922;-83
2022/01/06 01:31:11;;;;;;;;;;;-1.40;99.90;;;;;;4984486;28;20248;-84
2022/01/06 01:33:38;;;;;;;;;;;-1.50;99.90;;;;;;4968743;28;20499;-83
2022/01/06 01:36:05;;;;;;;;;;;-1.40;99.90;;;;;;4984129;28;20288;-83
2022/01/06 01:38:32;;;;;;;;;;;-1.40;99.90;;;;;;4966479;28;19922;-84
2022/01/06 01:40:59;;;;;;;;;;;-1.40;99.90;;;;;;4968774;28;20001;-84
2022/01/06 01:43:26;;;;;;;;;;;-1.40;99.90;;;;;;4965690;28;19932;-83
2022/01/06 01:45:57;;;;;;;;;;;-1.40;99.90;;;;;;4969397;28;19922;-84
2022/01/06 01:48:33;;;;;;;;;;;-1.40;99.90;;;;;;4882950;28;22183;-84
2022/01/06 01:51:00;;;;;;;;;;;-1.30;99.90;;;;;;337306;28;10022049;-84
2022/01/06 01:53:27;;;;;;;;;;;-1.40;99.90;;;;;;4965319;28;19953;-83
2022/01/06 01:55:53;;;;;;;;;;;-1.40;99.90;;;;;;4969652;28;20021;-84
2022/01/06 01:58:21;;;;;;;;;;;-1.40;99.90;;;;;;4974444;28;19926;-83
2022/01/06 02:00:50;;;;;;;;;;;-1.40;99.90;;;;;;4931152;28;19949;-84
2022/01/06 02:03:17;;;;;;;;;;;-1.30;99.90;;;;;;4973022;28;19937;-83
2022/01/06 02:05:44;;;;;;;;;;;-1.30;99.90;;;;;;4951597;28;19946;-83
2022/01/06 02:08:11;;;;;;;;;;;-1.30;99.90;;;;;;4949588;28;19922;-83
2022/01/06 02:10:38;;;;;;;;;;;-1.30;99.90;;;;;;4949413;28;19985;-82
2022/01/06 02:13:05;;;;;;;;;;;-1.30;99.90;;;;;;4981134;28;20395;-83
2022/01/06 02:15:32;;;;;;;;;;;-1.20;99.90;;;;;;4985412;28;20335;-83
2022/01/06 02:17:59;;;;;;;;;;;-1.20;99.90;;;;;;4963708;28;19930;-83
2022/01/06 02:20:26;;;;;;;;;;;-1.20;99.90;;;;;;4983312;28;19922;-83
2022/01/06 02:22:53;;;;;;;;;;;-1.20;99.90;;;;;;4950372;28;20376;-83
2022/01/06 02:25:19;;;;;;;;;;;-1.20;99.90;;;;;;4971121;28;19948;-82
2022/01/06 02:27:48;;;;;;;;;;;-1.10;99.90;;;;;;4964991;28;20356;-84
2022/01/06 02:30:15;;;;;;;;;;;-1.10;99.90;;;;;;4968640;28;20280;-82
2022/01/06 02:32:42;;;;;;;;;;;-1.10;99.90;;;;;;4966512;28;19921;-82
2022/01/06 02:35:11;;;;;;;;;;;-1.10;99.90;;;;;;4967869;28;20025;-83
2022/01/06 02:37:38;;;;;;;;;;;-1.10;99.90;;;;;;4968928;28;20061;-83
2022/01/06 02:40:09;;;;;;;;;;;-1.10;99.90;;;;;;4968609;28;19985;-83
2022/01/06 02:42:43;;;;;;;;;;;-1.00;99.90;;;;;;4965254;28;19921;-83
2022/01/06 02:45:11;;;;;;;;;;;-1.00;99.90;;;;;;4969865;28;19980;-83
2022/01/06 02:47:39;;;;;;;;;;;-1.00;99.90;;;;;;4983415;28;19984;-83
2022/01/06 02:50:06;;;;;;;;;;;-1.00;99.90;;;;;;4969528;28;19922;-83
2022/01/06 02:52:33;;;;;;;;;;;-1.00;99.90;;;;;;4980964;28;19977;-83
2022/01/06 02:55:00;;;;;;;;;;;-1.00;99.90;;;;;;4971023;28;19922;-83
2022/01/06 02:57:27;;;;;;;;;;;-1.00;99.90;;;;;;4966109;28;20303;-83
2022/01/06 02:59:54;;;;;;;;;;;-1.00;99.90;;;;;;4969497;28;19929;-82
2022/01/06 03:02:20;;;;;;;;;;;-1.00;99.90;;;;;;4966909;28;20050;-82
2022/01/06 03:04:47;;;;;;;;;;;-1.00;99.90;;;;;;4970800;28;19941;-83
2022/01/06 03:07:14;;;;;;;;;;;-1.00;99.90;;;;;;4982912;28;19987;-83
2022/01/06 03:09:43;;;;;;;;;;;-1.00;99.90;;;;;;4968258;28;19922;-83
2022/01/06 03:12:19;;;;;;;;;;;-1.00;99.90;;;;;;4963538;28;20379;-83
2022/01/06 03:14:46;;;;;;;;;;;-1.00;99.90;;;;;;4962861;28;20008;-82
2022/01/06 03:17:13;;;;;;;;;;;-1.10;99.90;;;;;;4979369;28;19933;-83
2022/01/06 03:19:41;;;;;;;;;;;-1.10;99.90;;;;;;4968946;28;19934;-82
2022/01/06 03:22:08;;;;;;;;;;;-1.10;99.90;;;;;;4965422;28;20006;-83
2022/01/06 03:24:35;;;;;;;;;;;-1.10;99.90;;;;;;4981970;28;20032;-83
2022/01/06 03:27:02;;;;;;;;;;;-1.10;99.90;;;;;;4968027;28;19925;-83
2022/01/06 03:29:29;;;;;;;;;;;-1.10;99.90;;;;;;4980416;28;20045;-83
2022/01/06 03:31:56;;;;;;;;;;;-1.10;99.90;;;;;;4980053;28;20217;-80
2022/01/06 03:34:23;;;;;;;;;;;-1.20;99.90;;;;;;4966590;28;19938;-80
2022/01/06 03:36:50;;;;;;;;;;;-1.20;99.90;;;;;;4956053;28;19926;-83
2022/01/06 03:39:16;;;;;;;;;;;-1.20;99.90;;;;;;4978075;28;19926;-82
2022/01/06 03:41:43;;;;;;;;;;;-1.20;99.90;;;;;;4965267;28;19976;-82
2022/01/06 03:44:10;;;;;;;;;;;-1.20;99.90;;;;;;4964189;28;19980;-82
2022/01/06 03:46:37;;;;;;;;;;;-1.30;99.90;;;;;;4961644;28;19933;-82
2022/01/06 03:49:06;;;;;;;;;;;-1.30;99.90;;;;;;2371932;28;10021854;-83
2022/01/06 03:51:33;;;;;;;;;;;-1.30;99.90;;;;;;3935738;28;10001186;-83
2022/01/06 03:54:00;;;;;;;;;;;-1.30;99.90;;;;;;4974710;28;20308;-83
2022/01/06 03:56:27;;;;;;;;;;;-1.30;99.90;;;;;;4965664;28;19958;-82
2022/01/06 03:58:54;;;;;;;;;;;-1.40;99.90;;;;;;4965879;28;20653;-83
2022/01/06 04:01:21;;;;;;;;;;;-1.40;99.90;;;;;;4979707;28;19985;-83
2022/01/06 04:03:48;;;;;;;;;;;-1.40;99.90;;;;;;4967315;28;20265;-83
2022/01/06 04:06:15;;;;;;;;;;;-1.40;99.90;;;;;;4966370;28;19984;-83
2022/01/06 04:08:42;;;;;;;;;;;-1.40;99.90;;;;;;4956377;28;19926;-83
2022/01/06 04:11:09;;;;;;;;;;;-1.40;99.90;;;;;;4965645;28;19976;-83
2022/01/06 04:13:35;;;;;;;;;;;-1.50;99.90;;;;;;4966597;28;19922;-81
2022/01/06 04:16:07;;;;;;;;;;;-1.50;99.90;;;;;;4966366;28;19929;-83
2022/01/06 04:18:34;;;;;;;;;;;-1.50;99.90;;;;;;4962188;28;19922;-83
2022/01/06 04:21:01;;;;;;;;;;;-1.50;99.90;;;;;;4967044;28;19922;-82
2022/01/06 04:23:28;;;;;;;;;;;-1.40;99.90;;;;;;4983219;28;19961;-83
2022/01/06 04:25:55;;;;;;;;;;;-1.40;99.90;;;;;;4966873;28;20461;-83
2022/01/06 04:28:22;;;;;;;;;;;-1.30;99.90;;;;;;4965472;28;19925;-83
2022/01/06 04:30:49;;;;;;;;;;;-1.20;99.90;;;;;;4965059;28;20345;-82
2022/01/06 04:33:16;;;;;;;;;;;-1.20;99.90;;;;;;4980075;28;19938;-83
2022/01/06 04:35:42;;;;;;;;;;;-1.20;99.90;;;;;;4967394;28;19928;-83
2022/01/06 04:38:09;;;;;;;;;;;-1.20;99.90;;;;;;4970704;28;20233;-83
2022/01/06 04:40:36;;;;;;;;;;;-1.10;99.90;;;;;;4981211;28;19933;-82
2022/01/06 04:43:04;;;;;;;;;;;-1.20;99.90;;;;;;4980695;28;19922;-83
2022/01/06 04:45:31;;;;;;;;;;;-1.20;99.90;;;;;;4965077;28;19929;-83
2022/01/06 04:47:58;;;;;;;;;;;-1.10;99.90;;;;;;4980573;28;19929;-83
2022/01/06 04:50:25;;;;;;;;;;;-1.10;99.90;;;;;;4967619;28;19946;-83
2022/01/06 04:52:52;;;;;;;;;;;-1.10;99.90;;;;;;4964397;28;19930;-83
2022/01/06 04:55:19;;;;;;;;;;;-1.10;99.90;;;;;;4982597;28;19922;-83
2022/01/06 04:57:46;;;;;;;;;;;-1.00;99.90;;;;;;4965943;28;19922;-82
2022/01/06 05:00:13;;;;;;;;;;;-1.10;99.90;;;;;;4980281;28;20410;-82
2022/01/06 05:02:39;;;;;;;;;;;-1.10;99.90;;;;;;4977231;28;19961;-83
2022/01/06 05:05:07;;;;;;;;;;;-1.10;99.90;;;;;;4980584;28;19949;-83
2022/01/06 05:07:33;;;;;;;;;;;-1.10;99.90;;;;;;4960779;28;20022;-82
2022/01/06 05:10:00;;;;;;;;;;;-1.10;99.90;;;;;;4954652;28;19926;-83
2022/01/06 05:12:27;;;;;;;;;;;-1.10;99.90;;;;;;4977303;28;19932;-82
2022/01/06 05:14:54;;;;;;;;;;;-1.10;99.90;;;;;;4975908;28;19929;-82
2022/01/06 05:17:21;;;;;;;;;;;-1.10;99.90;;;;;;4978543;28;20681;-83
2022/01/06 05:19:48;;;;;;;;;;;-1.10;99.90;;;;;;4964255;28;20384;-83
2022/01/06 05:22:15;;;;;;;;;;;-1.10;99.90;;;;;;4965590;28;20009;-82
2022/01/06 05:24:41;;;;;;;;;;;-1.20;99.90;;;;;;4970333;28;20490;-82
2022/01/06 05:27:11;;;;;;;;;;;-1.20;99.90;;;;;;4965605;28;19922;-83
2022/01/06 05:29:38;;;;;;;;;;;-1.20;99.90;;;;;;4958237;28;19922;-82
2022/01/06 05:32:05;;;;;;;;;;;-1.20;99.90;;;;;;4945909;28;19953;-82
2022/01/06 05:34:32;;;;;;;;;;;-1.20;99.90;;;;;;4957397;28;19930;-82
2022/01/06 05:37:00;;;;;;;;;;;-1.20;99.90;;;;;;4966451;28;19922;-83
2022/01/06 05:39:26;;;;;;;;;;;-1.20;99.90;;;;;;4965855;28;20142;-83
2022/01/06 05:41:53;;;;;;;;;;;-1.10;99.90;;;;;;4966759;28;19922;-83
2022/01/06 05:44:20;;;;;;;;;;;-1.20;99.90;;;;;;4964577;28;20318;-83
2022/01/06 05:46:53;;;;;;;;;;;-1.20;99.90;;;;;;4744777;28;10000423;-83
2022/01/06 05:49:20;;;;;;;;;;;-1.10;99.90;;;;;;682912;28;10002152;-82
2022/01/06 05:51:47;;;;;;;;;;;-1.10;99.90;;;;;;4979665;28;19930;-83
2022/01/06 05:54:14;;;;;;;;;;;-1.10;99.90;;;;;;4964431;28;19948;-83
2022/01/06 05:56:41;;;;;;;;;;;-1.10;99.90;;;;;;4979557;28;19945;-83
2022/01/06 05:59:08;;;;;;;;;;;-1.10;99.90;;;;;;4966487;28;19926;-83
2022/01/06 06:01:34;;;;;;;;;;;-1.10;99.90;;;;;;4966035;28;19989;-83
2022/01/06 06:04:02;;;;;;;;;;;-1.10;99.90;;;;;;4944222;28;19934;-82
2022/01/06 06:06:29;;;;;;;;;;;-1.00;99.90;;;;;;4946641;28;19923;-82
2022/01/06 06:08:55;;;;;;;;;;;-1.00;99.90;;;;;;4946974;28;20443;-83
2022/01/06 06:11:22;;;;;;;;;;;-1.00;99.90;;;;;;4949354;28;19969;-83
2022/01/06 06:13:49;;;;;;;;;;;-1.00;99.90;;;;;;4946248;28;19927;-82
2022/01/06 06:16:16;;;;;;;;;;;-1.10;99.90;;;;;;4964454;28;20009;-82
2022/01/06 06:18:43;;;;;;;;;;;-1.10;99.90;;;;;;4930820;28;19926;-82
2022/01/06 06:21:10;;;;;;;;;;;-1.10;99.90;;;;;;4944457;28;19977;-83
2022/01/06 06:23:37;;;;;;;;;;;-1.10;99.90;;;;;;4951790;28;19926;-83
2022/01/06 06:26:04;;;;;;;;;;;-1.00;99.90;;;;;;4950738;28;19969;-83
2022/01/06 06:28:30;;;;;;;;;;;-1.00;99.90;;;;;;4964468;28;19934;-83
2022/01/06 06:30:58;;;;;;;;;;;-1.00;99.90;;;;;;4962318;28;19934;-83
2022/01/06 06:33:25;;;;;;;;;;;-1.00;99.90;;;;;;4948598;28;20646;-83
2022/01/06 06:35:52;;;;;;;;;;;-0.90;99.90;;;;;;4948558;28;20407;-82
2022/01/06 06:38:19;;;;;;;;;;;-0.90;99.90;;;;;;4951460;28;19923;-83
2022/01/06 06:40:45;;;;;;;;;;;-0.80;99.90;;;;;;4946830;28;22722;-83
2022/01/06 06:43:13;;;;;;;;;;;-0.90;99.90;;;;;;4947434;28;20375;-83
2022/01/06 06:45:40;;;;;;;;;;;-0.90;99.90;;;;;;4947378;28;19934;-83
2022/01/06 06:48:08;;;;;;;;;;;-0.90;99.90;;;;;;4950035;28;19933;-83
2022/01/06 06:50:35;;;;;;;;;;;-0.90;99.90;;;;;;4945220;28;19930;-83
2022/01/06 06:53:02;;;;;;;;;;;-0.90;99.90;;;;;;4951476;28;19922;-82
2022/01/06 06:55:30;;;;;;;;;;;-0.90;99.90;;;;;;4949395;28;19954;-84
2022/01/06 06:57:57;;;;;;;;;;;-0.90;99.90;;;;;;4962270;28;19930;-82
2022/01/06 07:00:23;;;;;;;;;;;-0.80;99.90;;;;;;4953734;28;19922;-83
2022/01/06 07:02:50;;;;;;;;;;;-0.80;99.90;;;;;;4947280;28;19923;-83
2022/01/06 07:05:18;;;;;;;;;;;-0.80;99.90;;;;;;4945585;28;19934;-82
2022/01/06 07:07:44;;;;;;;;;;;-0.80;99.90;;;;;;4963670;28;19957;-83
2022/01/06 07:10:11;;;;;;;;;;;-0.90;99.90;;;;;;4953133;28;20002;-83
2022/01/06 07:12:39;;;;;;;;;;;-0.90;99.90;;;;;;4947510;28;19926;-83
2022/01/06 07:15:07;;;;;;;;;;;-0.80;99.90;;;;;;4948508;28;19923;-83
2022/01/06 07:17:34;;;;;;;;;;;-0.80;99.90;;;;;;4929942;29;19953;-83
2022/01/06 07:20:01;;;;;;;;;;;-0.90;99.90;;;;;;4965879;28;20001;-83
2022/01/06 07:22:28;;;;;;;;;;;-1.00;99.90;;;;;;4950301;28;19926;-83
2022/01/06 07:24:55;;;;;;;;;;;-1.10;99.90;;;;;;4948237;28;20288;-82
2022/01/06 07:27:22;;;;;;;;;;;-1.10;99.90;;;;;;4963390;28;19922;-84
2022/01/06 07:29:49;;;;;;;;;;;-1.20;99.90;;;;;;4947825;28;19957;-82
2022/01/06 07:32:16;;;;;;;;;;;-1.20;99.90;;;;;;4948157;28;20375;-83
2022/01/06 07:34:43;;;;;;;;;;;-1.20;99.90;;;;;;4946091;28;19923;-82
2022/01/06 07:37:10;;;;;;;;;;;-1.20;99.90;;;;;;4941607;28;19930;-82
2022/01/06 07:39:37;;;;;;;;;;;-1.20;99.90;;;;;;4949537;28;19930;-83
2022/01/06 07:42:04;;;;;;;;;;;-1.30;99.90;;;;;;4947302;28;19946;-83
2022/01/06 07:44:31;;;;;;;;;;;-1.30;99.90;;;;;;4944992;28;19934;-83
2022/01/06 07:47:03;;;;;;;;;;;-1.30;99.90;;;;;;1435148;28;10022021;-82
2022/01/06 07:49:30;;;;;;;;;;;-1.30;99.90;;;;;;4625514;28;10001164;-83
2022/01/06 07:51:57;;;;;;;;;;;-1.20;99.90;;;;;;4966161;28;19949;-83
2022/01/06 07:54:24;;;;;;;;;;;-1.30;99.90;;;;;;4984003;28;19980;-82
2022/01/06 07:56:50;;;;;;;;;;;-1.20;99.90;;;;;;4981350;28;20432;-83
2022/01/06 07:59:17;;;;;;;;;;;-1.30;99.90;;;;;;4959416;28;19932;-82
2022/01/06 08:01:44;;;;;;;;;;;-1.20;99.90;;;;;;4968953;28;19997;-83
2022/01/06 08:04:11;;;;;;;;;;;-1.20;99.90;;;;;;4967528;28;19966;-82
2022/01/06 08:06:38;;;;;;;;;;;-1.20;99.90;;;;;;4961958;28;19925;-83
2022/01/06 08:09:05;;;;;;;;;;;-1.20;99.90;;;;;;4957606;28;19957;-84
2022/01/06 08:11:32;;;;;;;;;;;-1.20;99.90;;;;;;4983163;28;20065;-83
2022/01/06 08:13:59;;;;;;;;;;;-1.10;99.90;;;;;;4982095;28;19922;-82
2022/01/06 08:16:26;;;;;;;;;;;-1.10;99.90;;;;;;4966446;28;19929;-83
2022/01/06 08:18:53;;;;;;;;;;;-1.10;99.90;;;;;;4968021;28;19945;-83
2022/01/06 08:21:20;;;;;;;;;;;-1.10;99.90;;;;;;4966606;28;20603;-83
2022/01/06 08:23:46;;;;;;;;;;;-1.10;99.90;;;;;;4972703;28;19921;-83
2022/01/06 08:26:15;;;;;;;;;;;-1.10;99.90;;;;;;4965945;28;19941;-83
2022/01/06 08:28:45;;;;;;;;;;;-1.10;99.90;;;;;;4979289;28;19922;-83
2022/01/06 08:31:13;;;;;;;;;;;-1.10;99.90;;;;;;4978724;28;19926;-82
2022/01/06 08:33:40;;;;;;;;;;;-1.10;99.90;;;;;;4977537;28;19922;-83
2022/01/06 08:36:06;;;;;;;;;;;-1.10;99.90;;;;;;4965634;28;19942;-83
2022/01/06 08:38:33;;;;;;;;;;;-1.10;99.90;;;;;;4962968;28;20255;-83
2022/01/06 08:41:00;;;;;;;;;;;-1.20;99.90;;;;;;4966834;28;19937;-83
2022/01/06 08:43:27;;;;;;;;;;;-1.10;99.90;;;;;;4965767;28;19937;-83
2022/01/06 08:45:55;;;;;;;;;;;-1.10;99.90;;;;;;4983015;28;19977;-82
2022/01/06 08:48:23;;;;;;;;;;;-1.20;99.90;;;;;;4964903;28;20340;-83
2022/01/06 08:50:50;;;;;;;;;;;-1.10;99.90;;;;;;4959441;28;19922;-83
2022/01/06 08:53:17;;;;;;;;;;;-1.10;99.90;;;;;;4980790;28;19934;-83
2022/01/06 08:55:46;;;;;;;;;;;-1.10;99.90;;;;;;4966330;28;19933;-83
2022/01/06 08:58:14;;;;;;;;;;;-1.10;99.90;;;;;;4965528;28;19929;-84
2022/01/06 09:00:41;;;;;;;;;;;-1.10;99.90;;;;;;4969137;28;19961;-83
2022/01/06 09:03:09;;;;;;;;;;;-1.10;99.90;;;;;;4980723;28;20014;-83
2022/01/06 09:05:36;;;;;;;;;;;-1.10;99.90;;;;;;4982235;28;20288;-84
2022/01/06 09:08:06;;;;;;;;;;;-1.10;99.90;;;;;;4971548;28;20312;-83
2022/01/06 09:10:37;;;;;;;;;;;-1.10;99.90;;;;;;4959278;28;19934;-84
2022/01/06 09:13:24;;;;;;;;;;;-1.10;99.90;;;;;;4973383;28;20009;-83
2022/01/06 09:15:51;;;;;;;;;;;-1.10;99.90;;;;;;4982031;28;19988;-83
2022/01/06 09:18:18;;;;;;;;;;;-1.10;99.90;;;;;;4966347;28;19922;-84
2022/01/06 09:20:45;;;;;;;;;;;-1.10;99.90;;;;;;4964641;28;20343;-83
2022/01/06 09:23:12;;;;;;;;;;;-1.10;99.90;;;;;;4968267;28;20435;-83
2022/01/06 09:25:39;;;;;;;;;;;-1.10;99.90;;;;;;4966410;28;19973;-83
2022/01/06 09:28:06;;;;;;;;;;;-1.10;99.90;;;;;;4966954;28;19922;-84
2022/01/06 09:30:32;;;;;;;;;;;-1.10;99.90;;;;;;4976564;28;20010;-83
2022/01/06 09:32:59;;;;;;;;;;;-1.10;99.90;;;;;;4980203;28;19942;-83
2022/01/06 09:35:26;;;;;;;;;;;-1.00;99.90;;;;;;4979499;28;19973;-83
2022/01/06 09:37:53;;;;;;;;;;;-1.00;99.90;;;;;;4980472;28;19933;-83
2022/01/06 09:40:21;;;;;;;;;;;-1.00;99.90;;;;;;4965498;28;20575;-84
2022/01/06 09:42:48;;;;;;;;;;;-1.00;99.90;;;;;;4962772;28;19926;-83
2022/01/06 09:45:16;;;;;;;;;;;-1.00;99.90;;;;;;4964263;28;19930;-83
2022/01/06 09:48:00;;;;;;;;;;;-1.00;99.90;;;;;;1852958;28;10002023;-83
2022/01/06 09:50:27;;;;;;;;;;;-1.00;99.90;;;;;;3939483;28;10001178;-83
2022/01/06 09:52:54;;;;;;;;;;;-1.00;99.90;;;;;;4951800;28;19925;-84
2022/01/06 09:55:21;;;;;;;;;;;-1.00;99.90;;;;;;4985153;28;20243;-83
2022/01/06 09:57:54;;;;;;;;;;;-1.00;99.90;;;;;;4973460;28;19977;-83
2022/01/06 10:00:22;;;;;;;;;;;-1.10;99.90;;;;;;4969026;28;20021;-82
2022/01/06 10:02:53;;;;;;;;;;;-1.10;99.90;;;;;;4982777;28;19925;-83
2022/01/06 10:05:20;;;;;;;;;;;-1.20;99.90;;;;;;4968900;28;20254;-83
2022/01/06 10:07:47;;;;;;;;;;;-1.20;99.90;;;;;;4965903;28;19926;-83
2022/01/06 10:10:14;;;;;;;;;;;-1.20;99.90;;;;;;4981885;28;19930;-83
2022/01/06 10:12:42;;;;;;;;;;;-1.30;99.90;;;;;;4988280;28;19936;-84
2022/01/06 10:15:19;;;;;;;;;;;-1.30;99.90;;;;;;4969784;28;19926;-83
2022/01/06 10:17:46;;;;;;;;;;;-1.30;99.90;;;;;;4966423;28;19932;-84
2022/01/06 10:20:17;;;;;;;;;;;-1.30;99.90;;;;;;4969558;28;19977;-83
2022/01/06 10:22:46;;;;;;;;;;;-1.30;99.90;;;;;;4962145;28;19930;-84
2022/01/06 10:25:13;;;;;;;;;;;-1.30;99.90;;;;;;4969529;28;19922;-83
2022/01/06 10:27:41;;;;;;;;;;;-1.30;99.90;;;;;;4968513;28;19922;-83
2022/01/06 10:30:09;;;;;;;;;;;-1.40;99.90;;;;;;4982883;28;19926;-83
2022/01/06 10:32:37;;;;;;;;;;;-1.30;99.90;;;;;;4977726;28;20020;-83
2022/01/06 10:35:05;;;;;;;;;;;-1.30;99.90;;;;;;4969122;28;19985;-83
2022/01/06 10:37:35;;;;;;;;;;;-1.40;99.90;;;;;;4970268;28;19922;-83
2022/01/06 10:40:09;;;;;;;;;;;-1.30;99.90;;;;;;4968855;28;20400;-83
2022/01/06 10:42:37;;;;;;;;;;;-1.40;99.90;;;;;;4966321;28;19930;-83
2022/01/06 10:45:14;;;;;;;;;;;-1.40;99.90;;;;;;4968022;28;19934;-82
2022/01/06 10:47:46;;;;;;;;;;;-1.40;99.90;;;;;;4971222;28;20021;-83
2022/01/06 10:50:20;;;;;;;;;;;-1.40;99.90;;;;;;4967340;28;20350;-83
2022/01/06 10:53:07;;;;;;;;;;;-1.50;99.90;;;;;;4969003;28;19937;-83
2022/01/06 10:55:35;;;;;;;;;;;-1.50;99.90;;;;;;4983690;28;19976;-84
2022/01/06 10:58:02;;;;;;;;;;;-1.50;99.90;;;;;;4967231;28;20166;-83
2022/01/06 11:00:29;;;;;;;;;;;-1.40;99.90;;;;;;4960343;28;19984;-82
2022/01/06 11:03:11;;;;;;;;;;;-1.40;99.90;;;;;;4967811;28;19926;-83
2022/01/06 11:05:40;;;;;;;;;;;-1.40;99.90;;;;;;4967297;28;19922;-83
2022/01/06 11:08:08;;;;;;;;;;;-1.30;99.90;;;;;;4966614;28;19976;-83
2022/01/06 11:10:37;;;;;;;;;;;-1.30;99.90;;;;;;4964268;28;19930;-82
2022/01/06 11:13:04;;;;;;;;;;;-1.30;99.90;;;;;;4966910;28;20368;-83
2022/01/06 11:15:31;;;;;;;;;;;-1.30;99.90;;;;;;4966172;28;20029;-84
2022/01/06 11:18:03;;;;;;;;;;;-1.30;99.90;;;;;;4984351;28;19928;-83
2022/01/06 11:20:32;;;;;;;;;;;-1.30;99.90;;;;;;4966303;28;20032;-83
2022/01/06 11:23:00;;;;;;;;;;;-1.30;99.90;;;;;;4970004;28;20493;-83
2022/01/06 11:25:30;;;;;;;;;;;-1.30;99.90;;;;;;4968823;28;20021;-83
2022/01/06 11:28:04;;;;;;;;;;;-1.30;99.90;;;;;;4966336;28;19933;-83
2022/01/06 11:30:38;;;;;;;;;;;-1.30;99.90;;;;;;4967808;28;19926;-83
2022/01/06 11:33:05;;;;;;;;;;;-1.40;99.90;;;;;;4967761;28;19922;-83
2022/01/06 11:35:46;;;;;;;;;;;-1.40;99.90;;;;;;4969512;28;19972;-83
2022/01/06 11:38:15;;;;;;;;;;;-1.40;99.90;;;;;;4966860;28;19922;-83
2022/01/06 11:40:44;;;;;;;;;;;-1.30;99.90;;;;;;4981166;28;19944;-83
2022/01/06 11:43:14;;;;;;;;;;;-1.40;99.90;;;;;;4966876;28;20331;-83
2022/01/06 11:45:41;;;;;;;;;;;-1.50;99.90;;;;;;4959572;28;19933;-83
2022/01/06 11:48:20;;;;;;;;;;;-1.50;99.90;;;;;;2730391;28;10001093;-83
2022/01/06 11:50:47;;;;;;;;;;;-1.50;99.90;;;;;;3253493;28;10001508;-83
2022/01/06 11:53:16;;;;;;;;;;;-1.50;99.90;;;;;;4967075;28;20336;-83
2022/01/06 11:55:44;;;;;;;;;;;-1.50;99.90;;;;;;4976932;28;20372;-83
2022/01/06 11:58:12;;;;;;;;;;;-1.40;99.90;;;;;;4954959;28;19925;-83
2022/01/06 12:00:42;;;;;;;;;;;-1.40;99.90;;;;;;4963919;28;19984;-84
2022/01/06 12:03:11;;;;;;;;;;;-1.40;99.90;;;;;;4980970;28;19942;-84
2022/01/06 12:05:42;;;;;;;;;;;-1.40;99.90;;;;;;4982632;28;20305;-83
2022/01/06 12:08:09;;;;;;;;;;;-1.40;99.90;;;;;;4966476;28;20025;-83
2022/01/06 12:10:43;;;;;;;;;;;-1.40;99.90;;;;;;4964762;28;20252;-83
2022/01/06 12:13:10;;;;;;;;;;;-1.40;99.90;;;;;;4965042;28;20724;-84
2022/01/06 12:15:47;;;;;;;;;;;-1.40;99.90;;;;;;4968088;28;19926;-83
2022/01/06 12:18:20;;;;;;;;;;;-1.40;99.90;;;;;;4965762;28;20367;-84
2022/01/06 12:20:48;;;;;;;;;;;-1.40;99.90;;;;;;4962959;28;19938;-83
2022/01/06 12:23:15;;;;;;;;;;;-1.40;99.90;;;;;;4969088;28;19960;-83
2022/01/06 12:25:53;;;;;;;;;;;-1.40;99.90;;;;;;4965259;28;19961;-83
2022/01/06 12:28:20;;;;;;;;;;;-1.40;99.90;;;;;;4981461;28;19940;-83
2022/01/06 12:30:47;;;;;;;;;;;-1.40;99.90;;;;;;4948549;28;20337;-83
2022/01/06 12:33:18;;;;;;;;;;;-1.30;99.90;;;;;;4967727;28;20286;-83
2022/01/06 12:35:48;;;;;;;;;;;-1.30;99.90;;;;;;4964341;28;19969;-83
2022/01/06 12:38:22;;;;;;;;;;;-1.30;99.90;;;;;;4969290;28;19964;-83
2022/01/06 12:40:49;;;;;;;;;;;-1.30;99.90;;;;;;4980622;28;19925;-83
2022/01/06 12:43:34;;;;;;;;;;;-1.40;99.90;;;;;;4963399;28;20372;-84
2022/01/06 12:46:04;;;;;;;;;;;-1.40;99.90;;;;;;4964349;28;19926;-83
2022/01/06 12:48:36;;;;;;;;;;;-1.40;99.90;;;;;;4979056;28;19929;-83
2022/01/06 12:51:02;;;;;;;;;;;-1.40;99.90;;;;;;4966303;28;19930;-83
2022/01/06 12:53:34;;;;;;;;;;;-1.40;99.90;;;;;;4967670;28;19926;-83
2022/01/06 12:56:01;;;;;;;;;;;-1.30;99.90;;;;;;4966203;28;19930;-82
2022/01/06 12:58:33;;;;;;;;;;;-1.30;99.90;;;;;;4978902;28;19984;-83
2022/01/06 13:01:01;;;;;;;;;;;-1.30;99.90;;;;;;4966902;28;20064;-83
2022/01/06 13:03:29;;;;;;;;;;;-1.30;99.90;;;;;;4981963;28;19950;-83
2022/01/06 13:05:57;;;;;;;;;;;-1.30;99.90;;;;;;4977472;28;20006;-84
2022/01/06 13:08:24;;;;;;;;;;;-1.30;99.90;;;;;;4978132;28;19930;-81
2022/01/06 13:11:05;;;;;;;;;;;-1.30;99.90;;;;;;4963390;28;19932;-84
2022/01/06 13:13:52;;;;;;;;;;;-1.40;99.90;;;;;;4967047;28;19948;-84
2022/01/06 13:16:22;;;;;;;;;;;-1.30;99.90;;;;;;4965368;28;19922;-84
2022/01/06 13:19:02;;;;;;;;;;;-1.30;99.90;;;;;;4977111;28;20001;-83
2022/01/06 13:21:33;;;;;;;;;;;-1.40;99.90;;;;;;4962369;28;19932;-84
2022/01/06 13:24:15;;;;;;;;;;;-1.30;99.90;;;;;;4964674;28;19929;-83
2022/01/06 13:26:55;;;;;;;;;;;-1.30;99.90;;;;;;4963125;28;20360;-84
2022/01/06 13:29:25;;;;;;;;;;;-1.40;99.90;;;;;;4980611;28;19933;-84
2022/01/06 13:31:59;;;;;;;;;;;-1.30;99.90;;;;;;4952969;28;20427;-84
2022/01/06 13:34:26;;;;;;;;;;;-1.30;99.90;;;;;;4943012;28;19922;-84
2022/01/06 13:37:06;;;;;;;;;;;-1.30;99.90;;;;;;4945269;28;19953;-84
2022/01/06 13:39:47;;;;;;;;;;;-1.40;99.90;;;;;;4944735;28;19962;-83
2022/01/06 13:42:27;;;;;;;;;;;-1.40;99.90;;;;;;4960474;28;19967;-84
2022/01/06 13:44:56;;;;;;;;;;;-1.40;99.90;;;;;;4962455;28;19933;-84
2022/01/06 13:47:47;;;;;;;;;;;-1.40;99.90;;;;;;4966621;28;19952;-84
2022/01/06 13:53:14;;;;;;;;;;;-1.30;99.90;;;;;;2260721;28;10023078;-84
2022/01/06 13:55:41;;;;;;;;;;;-1.40;99.90;;;;;;3937576;28;10001400;-84
2022/01/06 13:58:08;;;;;;;;;;;-1.30;99.90;;;;;;4974805;28;19957;-84
2022/01/06 14:00:35;;;;;;;;;;;-1.40;99.90;;;;;;4962162;28;19926;-84
2022/01/06 14:03:03;;;;;;;;;;;-1.40;99.90;;;;;;4966831;28;19945;-84
2022/01/06 14:05:30;;;;;;;;;;;-1.40;99.90;;;;;;4965886;28;20407;-84
2022/01/06 14:07:57;;;;;;;;;;;-1.30;99.90;;;;;;4965109;28;20288;-84
2022/01/06 14:10:24;;;;;;;;;;;-1.30;99.90;;;;;;4964158;28;19922;-83
2022/01/06 14:12:53;;;;;;;;;;;-1.40;99.90;;;;;;4960868;28;19965;-84
2022/01/06 14:15:19;;;;;;;;;;;-1.30;99.90;;;;;;4965906;28;19933;-84
2022/01/06 14:17:46;;;;;;;;;;;-1.40;99.90;;;;;;4979338;28;19922;-84
2022/01/06 14:20:13;;;;;;;;;;;-1.40;99.90;;;;;;4965454;28;19935;-84
2022/01/06 14:22:40;;;;;;;;;;;-1.40;99.90;;;;;;4959115;28;19922;-84
2022/01/06 14:25:07;;;;;;;;;;;-1.40;99.90;;;;;;4981005;28;19922;-83
2022/01/06 14:27:34;;;;;;;;;;;-1.40;99.90;;;;;;4964493;28;19984;-84
2022/01/06 14:30:01;;;;;;;;;;;-1.40;99.90;;;;;;4966083;28;19945;-84
2022/01/06 14:32:42;;;;;;;;;;;-1.40;99.90;;;;;;4967382;28;20367;-83